TimePDT,TemperatureF,Dew PointF,Humidity,Sea Level PressureIn,VisibilityMPH,Wind Direction,Wind SpeedMPH,Gust SpeedMPH,PrecipitationIn,Events,Conditions,WindDirDegrees,DateUTC
12:53 AM,57.9,37.0,46,29.96,10.0,West,8.1,-,N/A,,Clear,270,2014-04-04 07:53:00
1:53 AM,55.9,36.0,47,29.95,10.0,NW,4.6,-,N/A,,Clear,310,2014-04-04 08:53:00
2:53 AM,54.0,36.0,51,29.94,10.0,West,5.8,-,N/A,,Clear,270,2014-04-04 09:53:00
3:53 AM,51.1,36.0,56,29.92,10.0,West,4.6,-,N/A,,Clear,270,2014-04-04 10:53:00
4:53 AM,51.1,33.1,50,29.91,10.0,West,6.9,-,N/A,,Clear,270,2014-04-04 11:53:00
5:53 AM,50.0,34.0,54,29.92,10.0,SW,3.5,-,N/A,,Clear,220,2014-04-04 12:53:00
6:53 AM,51.1,34.0,52,29.93,10.0,WSW,3.5,-,N/A,,Clear,250,2014-04-04 13:53:00
7:53 AM,57.0,36.0,45,29.94,10.0,Calm,Calm,-,N/A,,Clear,0,2014-04-04 14:53:00
8:53 AM,64.9,30.0,27,29.94,10.0,NW,5.8,-,N/A,,Clear,320,2014-04-04 15:53:00
9:53 AM,68.0,27.0,21,29.94,10.0,West,6.9,-,N/A,,Clear,280,2014-04-04 16:53:00
10:53 AM,72.0,28.9,20,29.94,10.0,Variable,3.5,-,N/A,,Clear,0,2014-04-04 17:53:00
11:53 AM,73.9,30.0,20,29.92,10.0,Calm,Calm,-,N/A,,Clear,0,2014-04-04 18:53:00
12:53 PM,75.9,25.0,15,29.89,10.0,Calm,Calm,-,N/A,,Clear,0,2014-04-04 19:53:00
1:53 PM,78.1,21.0,12,29.86,10.0,Variable,3.5,-,N/A,,Clear,0,2014-04-04 20:53:00
2:53 PM,80.1,18.0,10,29.83,10.0,NNW,8.1,-,N/A,,Clear,330,2014-04-04 21:53:00
3:53 PM,79.0,17.1,10,29.81,10.0,NW,5.8,-,N/A,,Clear,320,2014-04-04 22:53:00
4:53 PM,77.0,23.0,13,29.80,10.0,WSW,15.0,-,N/A,,Clear,250,2014-04-04 23:53:00
5:53 PM,73.0,30.9,21,29.81,10.0,West,12.7,27.6,N/A,,Clear,270,2014-04-05 00:53:00
6:53 PM,69.1,27.0,21,29.81,10.0,West,17.3,21.9,N/A,,Clear,260,2014-04-05 01:53:00
7:53 PM,68.0,32.0,26,29.81,10.0,West,24.2,33.4,N/A,,Clear,260,2014-04-05 02:53:00
8:53 PM,64.0,32.0,30,29.83,10.0,West,19.6,-,N/A,,Clear,270,2014-04-05 03:53:00
9:53 PM,62.1,33.1,34,29.84,10.0,West,13.8,-,N/A,,Clear,260,2014-04-05 04:53:00
10:53 PM,60.1,30.9,33,29.84,10.0,WSW,12.7,-,N/A,,Clear,250,2014-04-05 05:53:00
11:53 PM,60.1,32.0,35,29.83,10.0,West,17.3,25.3,N/A,,Clear,270,2014-04-05 06:53:00